Preview of NWS' New Version of Forecast
This preview is not operational and should not be used for support decisions.

Terminal Aerodrome Forecast (TAF)

Issued by National Weather Service (NWS)

                            
328 
FTUS42 KKEY 251644 AAE
TAFEYW
TAF AMD
KEYW 251644Z 2517/2612 09011KT 5SM -RA BR SCT020 BKN040 OVC070
      TEMPO 2517/2518 VRB05KT 2SM +SHRA BR BKN030
     FM252000 10012G18KT P6SM -RA SCT015 SCT030 OVC060
      TEMPO 2520/2524 12016G26KT 3SM +TSRA BR BKN015CB OVC030
     FM260600 13011G20KT 4SM -RA OVC015 PROB30 2606/2607 4SM -TSRA
      BKN015CB=